createdAt,value
2022-11-24T00:04:39.895Z,19.2
2022-11-24T00:09:34.664Z,19.2
2022-11-24T00:14:29.352Z,19.2
2022-11-24T00:19:24.110Z,19.1
2022-11-24T00:24:18.780Z,19.1
2022-11-24T00:29:13.363Z,19.1
2022-11-24T00:34:08.012Z,19
2022-11-24T00:39:02.677Z,19.1
2022-11-24T00:43:57.311Z,18.9
2022-11-24T00:48:51.945Z,18.9
2022-11-24T00:53:46.763Z,18.8
2022-11-24T00:58:46.499Z,18.9
2022-11-24T01:03:40.993Z,18.9
2022-11-24T01:08:35.626Z,18.9
2022-11-24T01:13:30.176Z,18.8
2022-11-24T01:18:25.068Z,18.7
2022-11-24T01:23:19.906Z,18.8
2022-11-24T01:28:14.390Z,18.8
2022-11-24T01:33:09.185Z,18.8
2022-11-24T01:38:04.049Z,18.7
2022-11-24T01:42:58.467Z,18.7
2022-11-24T01:47:52.561Z,18.7
2022-11-24T01:52:47.480Z,18.6
2022-11-24T01:57:42.253Z,18.6
2022-11-24T02:02:36.917Z,18.6
2022-11-24T02:07:31.659Z,18.6
2022-11-24T02:12:26.379Z,18.5
2022-11-24T02:17:21.078Z,18.5
2022-11-24T02:22:15.994Z,18.5
2022-11-24T02:27:10.714Z,18.5
2022-11-24T02:32:05.243Z,18.5
2022-11-24T02:37:00.003Z,18.5
2022-11-24T02:41:54.762Z,18.3
2022-11-24T02:46:49.368Z,18.3
2022-11-24T02:51:44.175Z,18.3
2022-11-24T02:56:38.741Z,18.2
2022-11-24T03:01:33.324Z,18.3
2022-11-24T03:06:27.867Z,18.3
2022-11-24T03:11:22.581Z,18.2
2022-11-24T03:16:17.367Z,18.2
2022-11-24T03:21:12.071Z,18.2
2022-11-24T03:26:06.764Z,18.2
2022-11-24T03:31:01.292Z,18.1
2022-11-24T03:35:55.917Z,18.2
2022-11-24T03:40:50.718Z,18.2
2022-11-24T03:45:46.633Z,18.2
2022-11-24T03:50:39.991Z,18.2
2022-11-24T03:55:34.502Z,18.1
2022-11-24T04:00:28.977Z,18.2
2022-11-24T04:05:23.577Z,18.1
2022-11-24T04:10:18.350Z,18.1
2022-11-24T04:15:13.242Z,18.1
2022-11-24T04:20:07.845Z,18
2022-11-24T04:25:02.335Z,18
2022-11-24T04:29:57.014Z,18
2022-11-24T04:34:51.460Z,18
2022-11-24T04:39:46.094Z,17.9
2022-11-24T04:44:40.761Z,17.9
2022-11-24T04:49:35.622Z,17.9
2022-11-24T04:54:30.612Z,17.9
2022-11-24T04:59:24.987Z,17.9
2022-11-24T05:04:19.868Z,17.9
2022-11-24T05:09:14.576Z,17.8
2022-11-24T05:14:08.796Z,18
2022-11-24T05:19:03.660Z,18.3
2022-11-24T05:23:58.828Z,18.7
2022-11-24T05:28:53.738Z,19
2022-11-24T05:33:48.605Z,19.3
2022-11-24T05:38:43.496Z,19.8
2022-11-24T05:43:37.824Z,20.2
2022-11-24T05:48:33.156Z,20.6
2022-11-24T05:53:28.197Z,20.3
2022-11-24T05:58:22.973Z,20.7
2022-11-24T06:07:46.611Z,21.8
2022-11-24T06:12:27.156Z,21.9
2022-11-24T06:17:15.852Z,21.9
2022-11-24T06:22:10.149Z,21.7
2022-11-24T06:27:04.393Z,20.4
2022-11-24T06:31:58.914Z,20
2022-11-24T06:36:53.742Z,20.2
2022-11-24T06:41:48.514Z,20.4
2022-11-24T06:46:43.677Z,20.8
2022-11-24T06:51:38.306Z,20.7
2022-11-24T06:56:32.675Z,20.2
2022-11-24T07:01:27.531Z,20
2022-11-24T07:06:22.440Z,19.8
2022-11-24T07:11:17.366Z,19.5
2022-11-24T07:16:12.016Z,19.5
2022-11-24T07:21:05.766Z,19.6
2022-11-24T07:26:03.771Z,19.6
2022-11-24T07:30:54.611Z,19.6
2022-11-24T07:35:49.427Z,19.5
2022-11-24T07:40:44.362Z,19.4
2022-11-24T07:45:39.000Z,19.3
2022-11-24T07:50:33.832Z,19.2
2022-11-24T07:55:28.362Z,19.1
2022-11-24T08:00:23.275Z,19.1
2022-11-24T08:05:18.003Z,18.9
2022-11-24T08:10:12.754Z,18.6
2022-11-24T08:15:10.848Z,18.5
2022-11-24T08:20:02.610Z,18.5
2022-11-24T08:24:57.432Z,18.4
2022-11-24T08:29:52.223Z,18.3
2022-11-24T08:34:46.954Z,18.3
2022-11-24T08:39:41.707Z,18.3
2022-11-24T08:44:37.117Z,18.2
2022-11-24T08:49:31.177Z,18.2
2022-11-24T08:54:25.973Z,18.2
2022-11-24T08:59:20.844Z,18.2
2022-11-24T09:04:15.623Z,18.2
2022-11-24T09:09:09.603Z,18.2
2022-11-24T09:14:04.416Z,18.1
2022-11-24T09:18:59.394Z,18
2022-11-24T09:23:53.926Z,17.9
2022-11-24T09:28:48.023Z,18.1
2022-11-24T09:33:42.688Z,17.9
2022-11-24T09:38:36.622Z,17.9
2022-11-24T09:43:31.480Z,17.9
2022-11-24T09:48:25.743Z,17.9
2022-11-24T09:53:19.842Z,17.8
2022-11-24T09:58:14.570Z,17.7
2022-11-24T10:03:09.446Z,17.7
2022-11-24T10:08:04.369Z,17.7
2022-11-24T10:12:59.133Z,17.6
2022-11-24T10:17:53.795Z,17.5
2022-11-24T10:22:48.667Z,17.4
2022-11-24T10:27:43.648Z,17.4
2022-11-24T10:32:38.539Z,17.4
2022-11-24T10:37:33.153Z,17.3
2022-11-24T10:42:27.715Z,17.3
2022-11-24T10:47:22.622Z,17.3
2022-11-24T10:52:16.548Z,17.3
2022-11-24T10:57:10.563Z,17.2
2022-11-24T11:02:05.300Z,17.2
2022-11-24T11:06:59.769Z,17.2
2022-11-24T11:11:54.344Z,17.1
2022-11-24T11:16:49.142Z,17.1
2022-11-24T11:21:44.002Z,17
2022-11-24T11:26:38.669Z,17.1
2022-11-24T11:31:33.459Z,17
2022-11-24T11:36:28.223Z,17.1
2022-11-24T11:41:23.202Z,17
2022-11-24T11:46:17.669Z,16.9
2022-11-24T11:51:27.508Z,16.9
2022-11-24T11:56:06.834Z,16.9
2022-11-24T12:01:01.517Z,16.8
2022-11-24T12:05:56.350Z,16.9
2022-11-24T12:10:51.354Z,16.8
2022-11-24T12:15:45.966Z,16.8
2022-11-24T12:20:40.658Z,16.8
2022-11-24T12:25:35.498Z,16.8
2022-11-24T12:30:30.214Z,16.8
2022-11-24T12:35:24.255Z,16.8
2022-11-24T12:40:18.784Z,16.8
2022-11-24T12:45:13.483Z,16.7
2022-11-24T12:50:08.283Z,16.8
2022-11-24T12:55:02.994Z,16.6
2022-11-24T12:59:57.633Z,16.7
2022-11-24T13:04:52.396Z,16.7
2022-11-24T13:09:47.055Z,16.6
2022-11-24T13:14:41.772Z,16.7
2022-11-24T13:19:36.610Z,16.7
2022-11-24T13:24:31.207Z,16.7
2022-11-24T13:29:25.936Z,16.7
2022-11-24T13:34:22.504Z,16.6
2022-11-24T13:39:17.094Z,16.5
2022-11-24T13:44:11.461Z,16.5
2022-11-24T13:49:05.457Z,16.5
2022-11-24T13:54:00.305Z,16.4
2022-11-24T13:58:54.866Z,16.4
2022-11-24T14:04:07.475Z,16.4
2022-11-24T14:08:44.161Z,16.4
2022-11-24T14:13:38.945Z,16.3
2022-11-24T14:18:33.622Z,16.4
2022-11-24T14:23:28.142Z,16.4
2022-11-24T14:28:22.742Z,16.3
2022-11-24T14:33:17.151Z,16.4
2022-11-24T14:38:11.922Z,16.4
2022-11-24T14:43:06.142Z,16.3
2022-11-24T14:48:00.788Z,16.2
2022-11-24T14:52:55.426Z,16.2
2022-11-24T14:57:50.128Z,16.3
2022-11-24T15:02:44.540Z,16.4
2022-11-24T15:07:39.170Z,16.4
2022-11-24T15:12:33.836Z,16.4
2022-11-24T15:17:28.543Z,16.3
2022-11-24T15:22:23.024Z,16.3
2022-11-24T15:27:17.579Z,16.2
2022-11-24T15:32:11.591Z,16.3
2022-11-24T15:37:05.866Z,16.2
2022-11-24T15:42:00.539Z,16.3
2022-11-24T15:46:54.851Z,16.4
2022-11-24T15:51:49.911Z,16.6
2022-11-24T15:56:44.752Z,16.9
2022-11-24T16:01:39.665Z,17.4
2022-11-24T16:06:34.501Z,17.7
2022-11-24T16:11:29.537Z,18.2
2022-11-24T16:16:24.826Z,18.5
2022-11-24T16:21:19.516Z,18.9
2022-11-24T16:26:13.737Z,19.1
2022-11-24T16:31:08.564Z,19.1
2022-11-24T16:36:03.720Z,19.1
2022-11-24T16:40:58.471Z,19.2
2022-11-24T16:45:53.315Z,19.2
2022-11-24T16:50:47.544Z,19.3
2022-11-24T16:55:42.434Z,19.3
2022-11-24T17:00:36.945Z,19.4
2022-11-24T17:05:31.874Z,19.4
2022-11-24T17:10:26.784Z,19.4
2022-11-24T17:15:42.908Z,19.4
2022-11-24T17:20:15.353Z,19.4
2022-11-24T17:25:09.879Z,19.3
2022-11-24T17:30:04.266Z,19.2
2022-11-24T17:34:59.081Z,19.1
2022-11-24T17:40:12.829Z,19.1
2022-11-24T17:44:48.848Z,19.1
2022-11-24T17:49:43.604Z,19
2022-11-24T17:54:46.192Z,18.9
2022-11-24T17:59:32.039Z,18.8
2022-11-24T18:04:26.926Z,18.8
2022-11-24T18:09:21.966Z,18.8
2022-11-24T18:14:16.968Z,19
2022-11-24T18:19:11.920Z,19.1
2022-11-24T18:24:06.827Z,19.3
2022-11-24T18:29:02.003Z,19.7
2022-11-24T18:33:57.369Z,19.9
2022-11-24T18:38:52.373Z,20.1
2022-11-24T18:43:47.397Z,20.3
2022-11-24T18:48:42.361Z,20.4
2022-11-24T18:53:37.446Z,20.5
2022-11-24T18:58:32.189Z,20.5
2022-11-24T19:03:27.173Z,20.3
2022-11-24T19:08:21.717Z,20.3
2022-11-24T19:13:16.597Z,20.5
2022-11-24T19:18:10.702Z,20.1
2022-11-24T19:23:05.482Z,20
2022-11-24T19:28:00.549Z,19.9
2022-11-24T19:32:55.351Z,19.8
2022-11-24T19:37:49.945Z,19.9
2022-11-24T19:42:44.008Z,19.9
2022-11-24T19:47:38.769Z,19.9
2022-11-24T19:52:33.357Z,19.8
2022-11-24T19:57:28.202Z,19.6
2022-11-24T20:02:23.128Z,19.6
2022-11-24T20:07:16.973Z,19.5
2022-11-24T20:12:11.706Z,19.4
2022-11-24T20:17:06.572Z,19.3
2022-11-24T20:22:00.577Z,19.2
2022-11-24T20:26:55.577Z,19.1
2022-11-24T20:31:50.283Z,19.1
2022-11-24T20:36:44.667Z,19
2022-11-24T20:41:39.517Z,19
2022-11-24T20:46:34.408Z,18.9
2022-11-24T20:51:28.544Z,18.8
2022-11-24T20:56:23.039Z,18.7
2022-11-24T21:01:16.915Z,18.7
2022-11-24T21:06:11.551Z,18.7
2022-11-24T21:11:06.485Z,18.7
2022-11-24T21:16:00.746Z,18.6
2022-11-24T21:20:55.411Z,18.6
2022-11-24T21:25:50.287Z,18.5
2022-11-24T21:30:45.145Z,18.4
2022-11-24T21:35:39.800Z,18.5
2022-11-24T21:40:34.427Z,18.4
2022-11-24T21:45:29.252Z,18.4
2022-11-24T21:50:24.230Z,18.3
2022-11-24T21:55:18.318Z,18.3
2022-11-24T22:00:13.239Z,18.2
2022-11-24T22:05:07.215Z,18.1
2022-11-24T22:10:02.022Z,18.2
2022-11-24T22:14:56.755Z,18.4
2022-11-24T22:19:51.222Z,18.4
2022-11-24T22:24:45.874Z,18.3
2022-11-24T22:29:39.767Z,18.3
2022-11-24T22:34:34.321Z,18.3
2022-11-24T22:39:28.728Z,18.2
2022-11-24T22:44:23.387Z,18.1
2022-11-24T22:49:17.873Z,18.1
2022-11-24T22:54:12.211Z,17.9
2022-11-24T22:59:07.014Z,17.9
2022-11-24T23:04:00.994Z,17.8
2022-11-24T23:08:55.338Z,17.8
2022-11-24T23:13:50.084Z,17.7
2022-11-24T23:18:45.765Z,17.7
2022-11-24T23:23:39.804Z,17.8
2022-11-24T23:28:34.587Z,17.7
2022-11-24T23:33:29.390Z,17.9
2022-11-24T23:38:24.042Z,17.8
2022-11-24T23:43:18.686Z,17.8
2022-11-24T23:48:12.534Z,17.7
2022-11-24T23:53:07.168Z,17.8
2022-11-24T23:58:02.016Z,17.7
